Huvudsida
METAR-TAF:

METAR-TAF

Flygplatser :

Militär flygplats

Salon-de-Provence, Frankrike

latitud: 43-36N, longitud: 005-06E, höjd: 59 m

Aktuellt väderrapport

Denna rapport gjordes för 43 minuter sedan, klockan 14:30 UTC
Vind 17 kt från nord/nordväst
Temperatur 18°C
Fuktighet 42%
Tryck 1010 hPa
Sikt 10 km eller mer
Inga moln under 1 500 m eller inga cumulonimbus

METAR: LFMY 291430Z AUTO 34017KT CAVOK 18/05 Q1010

Tid: 17:13 (15:13 UTC)


TAF: saknas

Aktuella väderrapporter och prognoser från 4000 flygplatser (METAR- och TAF-rapporter).

De tillgängliga stationerna syns som gula och röda prickar på kartan.

För musen över prickarna för att se namnen på stationerna.

Klicka sedan för att få väderrapporter och prognoser.

För att ändra kartan: Klicka på de gröna knapparna med ett svart kors på för att zooma in; den gröna knappen med ett streck på för att zooma ut; eller på de gröna pilarna för angränsande kartor.


METAR-TAF: